TRA21Q LEAL-EHAM
Flight info
| Callsign | TRA21Q |
|---|---|
| Flight time | 2h 14m |
| Altitude | 32000 |
| Route | MITOS DCT ARGOR DCT EBROX/N0451F360 DCT LATRO DCT OLOXO DCT OKABI DCT TOU DCT ADABI DCT BOKNO DCT DEVRO DCT VANAD DCT PIWIZ DCT VADOM DCT BAMES DCT ARSAF DCT EGOZE DCT CMB/N0454F380 DCT VEKIN DCT ADUTO N873 FERDI/N0399F240 Y18 DENUT |
| Aircraft | B738/M-SDE2E3FGHIJ1P2RWXY/LB1 |
Departure
| Time | 2026-05-07 14:36 |
|---|---|
| Airport | Alicante-Elche Miguel Hernández Airport (LEAL) |
Arrival
| Time | 2026-05-07 16:50 |
|---|---|
| Airport | Amsterdam Airport Schiphol (EHAM) |
| Time | Latitude | Longitude | Altitude | Speed | Heading |
|---|---|---|---|---|---|
| 2026-05-07 14:15 | 38.28610 | -0.55029 | 86 ft | 0 kts | 280° |
| 2026-05-07 14:26 | 38.28606 | -0.55006 | 87 ft | 4 kts | 279° |
| 2026-05-07 14:26 | 38.28605 | -0.54973 | 86 ft | 4 kts | 251° |
| 2026-05-07 14:26 | 38.28619 | -0.54948 | 87 ft | 4 kts | 203° |
| 2026-05-07 14:26 | 38.28633 | -0.54943 | 87 ft | 1 kts | 189° |
| 2026-05-07 14:27 | 38.28634 | -0.54942 | 87 ft | 1 kts | 189° |
| 2026-05-07 14:28 | 38.28620 | -0.54946 | 87 ft | 4 kts | 189° |
| 2026-05-07 14:29 | 38.28580 | -0.54954 | 84 ft | 8 kts | 189° |
| 2026-05-07 14:29 | 38.28513 | -0.54969 | 82 ft | 12 kts | 190° |
| 2026-05-07 14:29 | 38.28430 | -0.55007 | 75 ft | 13 kts | 236° |
| 2026-05-07 14:29 | 38.28408 | -0.55118 | 81 ft | 13 kts | 240° |
| 2026-05-07 14:30 | 38.28358 | -0.55210 | 82 ft | 13 kts | 233° |
| 2026-05-07 14:30 | 38.28325 | -0.55309 | 89 ft | 12 kts | 270° |
| 2026-05-07 14:30 | 38.28338 | -0.55413 | 92 ft | 12 kts | 280° |
| 2026-05-07 14:30 | 38.28353 | -0.55516 | 92 ft | 12 kts | 280° |
| 2026-05-07 14:31 | 38.28367 | -0.55616 | 97 ft | 11 kts | 279° |
| 2026-05-07 14:31 | 38.28381 | -0.55713 | 100 ft | 11 kts | 279° |
| 2026-05-07 14:31 | 38.28393 | -0.55809 | 102 ft | 11 kts | 279° |
| 2026-05-07 14:31 | 38.28406 | -0.55902 | 104 ft | 10 kts | 279° |
| 2026-05-07 14:32 | 38.28418 | -0.55994 | 106 ft | 11 kts | 281° |
| 2026-05-07 14:32 | 38.28434 | -0.56095 | 107 ft | 13 kts | 280° |
| 2026-05-07 14:32 | 38.28451 | -0.56220 | 107 ft | 16 kts | 280° |
| 2026-05-07 14:32 | 38.28470 | -0.56358 | 108 ft | 15 kts | 280° |
| 2026-05-07 14:33 | 38.28489 | -0.56490 | 113 ft | 15 kts | 279° |
| 2026-05-07 14:33 | 38.28507 | -0.56618 | 117 ft | 15 kts | 281° |
| 2026-05-07 14:33 | 38.28526 | -0.56756 | 118 ft | 15 kts | 280° |
| 2026-05-07 14:33 | 38.28544 | -0.56884 | 123 ft | 15 kts | 279° |
| 2026-05-07 14:34 | 38.28560 | -0.57010 | 133 ft | 14 kts | 279° |
| 2026-05-07 14:34 | 38.28577 | -0.57130 | 138 ft | 13 kts | 282° |
| 2026-05-07 14:34 | 38.28595 | -0.57247 | 144 ft | 14 kts | 280° |
| 2026-05-07 14:34 | 38.28605 | -0.57384 | 148 ft | 16 kts | 251° |
| 2026-05-07 14:35 | 38.28508 | -0.57438 | 151 ft | 16 kts | 190° |
| 2026-05-07 14:35 | 38.28434 | -0.57359 | 147 ft | 18 kts | 102° |
| 2026-05-07 14:35 | 38.28378 | -0.56967 | 127 ft | 80 kts | 100° |
| 2026-05-07 14:35 | 38.28243 | -0.55991 | 104 ft | 142 kts | 99° |
| 2026-05-07 14:36 | 38.28030 | -0.54647 | 523 ft | 160 kts | 102° |
| 2026-05-07 14:36 | 38.27732 | -0.53252 | 1217 ft | 168 kts | 103° |
| 2026-05-07 14:36 | 38.27481 | -0.51828 | 1988 ft | 169 kts | 98° |
| 2026-05-07 14:36 | 38.27293 | -0.50226 | 2270 ft | 196 kts | 88° |
| 2026-05-07 14:37 | 38.27600 | -0.48456 | 2476 ft | 216 kts | 67° |
| 2026-05-07 14:37 | 38.29330 | -0.44909 | 3329 ft | 249 kts | 57° |
| 2026-05-07 14:37 | 38.30298 | -0.43054 | 4085 ft | 252 kts | 57° |
| 2026-05-07 14:38 | 38.31271 | -0.41191 | 4925 ft | 253 kts | 57° |
| 2026-05-07 14:38 | 38.32265 | -0.39287 | 5565 ft | 262 kts | 57° |
| 2026-05-07 14:38 | 38.33250 | -0.37308 | 6311 ft | 265 kts | 64° |
| 2026-05-07 14:38 | 38.33970 | -0.35139 | 7056 ft | 267 kts | 70° |
| 2026-05-07 14:39 | 38.34630 | -0.32883 | 7679 ft | 275 kts | 70° |
| 2026-05-07 14:39 | 38.35312 | -0.30591 | 8406 ft | 277 kts | 70° |
| 2026-05-07 14:39 | 38.36014 | -0.28283 | 9167 ft | 280 kts | 70° |
| 2026-05-07 14:39 | 38.36751 | -0.25958 | 9846 ft | 286 kts | 68° |
| 2026-05-07 14:40 | 38.37539 | -0.23586 | 10286 ft | 299 kts | 68° |
| 2026-05-07 14:40 | 38.38388 | -0.21048 | 10444 ft | 322 kts | 68° |
| 2026-05-07 14:40 | 38.39283 | -0.18367 | 10606 ft | 343 kts | 68° |
| 2026-05-07 14:40 | 38.40240 | -0.15491 | 10930 ft | 358 kts | 68° |
| 2026-05-07 14:41 | 38.41223 | -0.12534 | 11474 ft | 365 kts | 68° |
| 2026-05-07 14:41 | 38.42215 | -0.09539 | 12117 ft | 369 kts | 69° |
| 2026-05-07 14:41 | 38.43218 | -0.06502 | 12687 ft | 375 kts | 69° |
| 2026-05-07 14:41 | 38.44444 | -0.03555 | 13298 ft | 381 kts | 52° |
| 2026-05-07 14:42 | 38.46455 | -0.01332 | 13870 ft | 388 kts | 30° |
| 2026-05-07 14:42 | 38.48969 | -0.00094 | 14493 ft | 389 kts | 13° |
| 2026-05-07 14:42 | 38.51628 | 0.00674 | 15016 ft | 395 kts | 12° |
| 2026-05-07 14:42 | 38.54339 | 0.01407 | 15512 ft | 400 kts | 11° |
| 2026-05-07 14:43 | 38.57065 | 0.02134 | 16142 ft | 401 kts | 11° |
| 2026-05-07 14:43 | 38.59813 | 0.02876 | 16677 ft | 405 kts | 11° |
| 2026-05-07 14:43 | 38.62586 | 0.03637 | 17216 ft | 409 kts | 11° |
| 2026-05-07 14:43 | 38.65379 | 0.04415 | 17763 ft | 413 kts | 11° |
| 2026-05-07 14:44 | 38.67242 | 0.04939 | 18126 ft | 415 kts | 11° |
| 2026-05-07 14:44 | 38.70076 | 0.05741 | 18587 ft | 419 kts | 11° |
| 2026-05-07 14:44 | 38.72936 | 0.06554 | 19042 ft | 423 kts | 11° |
| 2026-05-07 14:44 | 38.75818 | 0.07375 | 19508 ft | 426 kts | 11° |
| 2026-05-07 14:45 | 38.78719 | 0.08204 | 19967 ft | 429 kts | 11° |
| 2026-05-07 14:45 | 38.81644 | 0.09039 | 20409 ft | 432 kts | 11° |
| 2026-05-07 14:45 | 38.84596 | 0.09883 | 20852 ft | 436 kts | 11° |
| 2026-05-07 14:45 | 38.87568 | 0.10733 | 21281 ft | 439 kts | 11° |
| 2026-05-07 14:46 | 38.90560 | 0.11589 | 21712 ft | 442 kts | 12° |
| 2026-05-07 14:46 | 38.93565 | 0.12451 | 22207 ft | 443 kts | 12° |
| 2026-05-07 14:46 | 38.96585 | 0.13317 | 22625 ft | 446 kts | 12° |
| 2026-05-07 14:46 | 38.99635 | 0.14192 | 22994 ft | 450 kts | 12° |
| 2026-05-07 14:47 | 39.02671 | 0.15065 | 23377 ft | 454 kts | 12° |
| 2026-05-07 14:47 | 39.05765 | 0.15954 | 23722 ft | 457 kts | 12° |
| 2026-05-07 14:47 | 39.08880 | 0.16850 | 24030 ft | 460 kts | 12° |
| 2026-05-07 14:47 | 39.12016 | 0.17754 | 24320 ft | 463 kts | 12° |
| 2026-05-07 14:48 | 39.15173 | 0.18664 | 24606 ft | 467 kts | 12° |
| 2026-05-07 14:48 | 39.18359 | 0.19583 | 24882 ft | 470 kts | 12° |
| 2026-05-07 14:48 | 39.21560 | 0.20508 | 25171 ft | 473 kts | 12° |
| 2026-05-07 14:48 | 39.24791 | 0.21442 | 25455 ft | 476 kts | 12° |
| 2026-05-07 14:49 | 39.28039 | 0.22382 | 25731 ft | 480 kts | 12° |
| 2026-05-07 14:49 | 39.31310 | 0.23330 | 26005 ft | 483 kts | 12° |
| 2026-05-07 14:49 | 39.34599 | 0.24283 | 26272 ft | 486 kts | 12° |
| 2026-05-07 14:49 | 39.37867 | 0.25232 | 26517 ft | 489 kts | 12° |
| 2026-05-07 14:50 | 39.41201 | 0.26201 | 26737 ft | 493 kts | 12° |
| 2026-05-07 14:50 | 39.44553 | 0.27176 | 26996 ft | 495 kts | 12° |
| 2026-05-07 14:50 | 39.47927 | 0.28158 | 27267 ft | 498 kts | 12° |
| 2026-05-07 14:50 | 39.51310 | 0.29161 | 27518 ft | 501 kts | 14° |
| 2026-05-07 14:51 | 39.54629 | 0.30584 | 27738 ft | 504 kts | 23° |
| 2026-05-07 14:51 | 39.57751 | 0.32656 | 27979 ft | 505 kts | 32° |
| 2026-05-07 14:51 | 39.60759 | 0.35035 | 28278 ft | 506 kts | 33° |
| 2026-05-07 14:51 | 39.63754 | 0.37453 | 28533 ft | 508 kts | 33° |
| 2026-05-07 14:52 | 39.66764 | 0.39886 | 28714 ft | 511 kts | 33° |
| 2026-05-07 14:52 | 39.69807 | 0.42330 | 28794 ft | 517 kts | 33° |
| 2026-05-07 14:52 | 39.72878 | 0.44775 | 29083 ft | 518 kts | 33° |
| 2026-05-07 14:52 | 39.75949 | 0.47203 | 29507 ft | 516 kts | 33° |
| 2026-05-07 14:53 | 39.79013 | 0.49617 | 29928 ft | 514 kts | 33° |
| 2026-05-07 14:53 | 39.82074 | 0.52028 | 30212 ft | 515 kts | 32° |
| 2026-05-07 14:53 | 39.85135 | 0.54439 | 30490 ft | 514 kts | 32° |
| 2026-05-07 14:53 | 39.88197 | 0.56855 | 30776 ft | 514 kts | 32° |
| 2026-05-07 14:54 | 39.91252 | 0.59269 | 31072 ft | 513 kts | 32° |
| 2026-05-07 14:54 | 39.94302 | 0.61683 | 31408 ft | 511 kts | 32° |
| 2026-05-07 14:54 | 39.97339 | 0.64090 | 31745 ft | 509 kts | 32° |
| 2026-05-07 14:54 | 40.00325 | 0.66460 | 31962 ft | 510 kts | 32° |
| 2026-05-07 14:55 | 40.06427 | 0.71311 | 31955 ft | 513 kts | 32° |
| 2026-05-07 14:55 | 40.12484 | 0.76136 | 31939 ft | 507 kts | 32° |
| 2026-05-07 14:56 | 40.18528 | 0.80960 | 31949 ft | 511 kts | 32° |
| 2026-05-07 14:56 | 40.24634 | 0.85845 | 31963 ft | 516 kts | 32° |
| 2026-05-07 14:57 | 40.30800 | 0.90788 | 31957 ft | 522 kts | 32° |
| 2026-05-07 14:57 | 40.36953 | 0.95730 | 31943 ft | 519 kts | 32° |
| 2026-05-07 14:58 | 40.43065 | 1.00651 | 31943 ft | 513 kts | 32° |
| 2026-05-07 14:58 | 40.49145 | 1.05557 | 31966 ft | 513 kts | 32° |
| 2026-05-07 14:59 | 40.55230 | 1.10477 | 31952 ft | 513 kts | 32° |
| 2026-05-07 14:59 | 40.61304 | 1.15400 | 31928 ft | 513 kts | 31° |
| 2026-05-07 15:00 | 40.67391 | 1.20343 | 31957 ft | 514 kts | 31° |
| 2026-05-07 15:00 | 40.73818 | 1.24456 | 31965 ft | 516 kts | 14° |
| 2026-05-07 15:01 | 40.80799 | 1.26891 | 32172 ft | 522 kts | 11° |
| 2026-05-07 15:01 | 40.84322 | 1.28082 | 32350 ft | 523 kts | 12° |
| 2026-05-07 15:01 | 40.87849 | 1.29295 | 32611 ft | 523 kts | 12° |
| 2026-05-07 15:02 | 40.91363 | 1.30527 | 32900 ft | 522 kts | 12° |
| 2026-05-07 15:02 | 40.94868 | 1.31776 | 33187 ft | 521 kts | 12° |
| 2026-05-07 15:02 | 40.98369 | 1.33035 | 33386 ft | 522 kts | 12° |
| 2026-05-07 15:02 | 41.01849 | 1.34292 | 33508 ft | 525 kts | 13° |
| 2026-05-07 15:03 | 41.05377 | 1.35569 | 33687 ft | 526 kts | 13° |
| 2026-05-07 15:03 | 41.08907 | 1.36847 | 33913 ft | 526 kts | 13° |
| 2026-05-07 15:03 | 41.12435 | 1.38125 | 34103 ft | 526 kts | 13° |
| 2026-05-07 15:03 | 41.15969 | 1.39406 | 34326 ft | 525 kts | 12° |
| 2026-05-07 15:04 | 41.19484 | 1.40681 | 34630 ft | 522 kts | 12° |
| 2026-05-07 15:04 | 41.22985 | 1.41951 | 34950 ft | 518 kts | 12° |
| 2026-05-07 15:04 | 41.26454 | 1.43212 | 35276 ft | 514 kts | 12° |
| 2026-05-07 15:04 | 41.29894 | 1.44463 | 35545 ft | 512 kts | 12° |
| 2026-05-07 15:05 | 41.33330 | 1.45712 | 35777 ft | 511 kts | 12° |
| 2026-05-07 15:05 | 41.36750 | 1.46958 | 35965 ft | 510 kts | 12° |
| 2026-05-07 15:05 | 41.43619 | 1.49462 | 35967 ft | 511 kts | 12° |
| 2026-05-07 15:06 | 41.50457 | 1.51964 | 35957 ft | 508 kts | 12° |
| 2026-05-07 15:06 | 41.57264 | 1.54460 | 35962 ft | 506 kts | 12° |
| 2026-05-07 15:07 | 41.64041 | 1.56950 | 35965 ft | 504 kts | 12° |
| 2026-05-07 15:07 | 41.70768 | 1.59426 | 35964 ft | 505 kts | 12° |
| 2026-05-07 15:08 | 41.77617 | 1.61329 | 35965 ft | 498 kts | 359° |
| 2026-05-07 15:08 | 41.81062 | 1.61372 | 35949 ft | 492 kts | 348° |
| 2026-05-07 15:08 | 41.84449 | 1.60862 | 35973 ft | 489 kts | 347° |
| 2026-05-07 15:09 | 41.91220 | 1.59679 | 35945 ft | 491 kts | 346° |
| 2026-05-07 15:09 | 41.97966 | 1.58540 | 35952 ft | 492 kts | 347° |
| 2026-05-07 15:10 | 42.04772 | 1.57453 | 35956 ft | 492 kts | 348° |
| 2026-05-07 15:10 | 42.11579 | 1.56382 | 35938 ft | 492 kts | 348° |
| 2026-05-07 15:11 | 42.18380 | 1.55307 | 35945 ft | 491 kts | 347° |
| 2026-05-07 15:11 | 42.25150 | 1.54232 | 35949 ft | 488 kts | 348° |
| 2026-05-07 15:12 | 42.31889 | 1.53158 | 35925 ft | 486 kts | 348° |
| 2026-05-07 15:12 | 42.38604 | 1.52084 | 35951 ft | 484 kts | 348° |
| 2026-05-07 15:13 | 42.45248 | 1.51021 | 35942 ft | 483 kts | 348° |
| 2026-05-07 15:13 | 42.51911 | 1.49956 | 35938 ft | 481 kts | 348° |
| 2026-05-07 15:14 | 42.58532 | 1.48895 | 35963 ft | 478 kts | 348° |
| 2026-05-07 15:14 | 42.65146 | 1.47831 | 35956 ft | 477 kts | 348° |
| 2026-05-07 15:15 | 42.71744 | 1.46770 | 35973 ft | 477 kts | 348° |
| 2026-05-07 15:15 | 42.78303 | 1.45712 | 35969 ft | 478 kts | 348° |
| 2026-05-07 15:16 | 42.84914 | 1.44644 | 35952 ft | 478 kts | 348° |
| 2026-05-07 15:16 | 42.91526 | 1.43573 | 35970 ft | 479 kts | 348° |
| 2026-05-07 15:17 | 42.98158 | 1.42496 | 35965 ft | 480 kts | 348° |
| 2026-05-07 15:17 | 43.04807 | 1.41415 | 35981 ft | 481 kts | 349° |
| 2026-05-07 15:18 | 43.11475 | 1.40328 | 35974 ft | 482 kts | 349° |
| 2026-05-07 15:18 | 43.18150 | 1.39238 | 35959 ft | 482 kts | 349° |
| 2026-05-07 15:19 | 43.24770 | 1.38155 | 35974 ft | 482 kts | 349° |
| 2026-05-07 15:19 | 43.31424 | 1.37063 | 35964 ft | 481 kts | 349° |
| 2026-05-07 15:20 | 43.38061 | 1.35972 | 35961 ft | 479 kts | 349° |
| 2026-05-07 15:20 | 43.44678 | 1.34882 | 35973 ft | 478 kts | 349° |
| 2026-05-07 15:21 | 43.51271 | 1.33792 | 35960 ft | 476 kts | 349° |
| 2026-05-07 15:21 | 43.57834 | 1.32706 | 35963 ft | 474 kts | 349° |
| 2026-05-07 15:22 | 43.64380 | 1.31619 | 35978 ft | 472 kts | 349° |
| 2026-05-07 15:22 | 43.70837 | 1.30427 | 35967 ft | 470 kts | 346° |
| 2026-05-07 15:23 | 43.77249 | 1.28785 | 35971 ft | 468 kts | 345° |
| 2026-05-07 15:23 | 43.83648 | 1.27046 | 35979 ft | 468 kts | 345° |
| 2026-05-07 15:24 | 43.90052 | 1.25343 | 35971 ft | 469 kts | 345° |
| 2026-05-07 15:24 | 43.96487 | 1.23664 | 35971 ft | 470 kts | 346° |
| 2026-05-07 15:25 | 44.02876 | 1.22006 | 35979 ft | 470 kts | 346° |
| 2026-05-07 15:25 | 44.09330 | 1.20328 | 35970 ft | 471 kts | 346° |
| 2026-05-07 15:26 | 44.15775 | 1.18647 | 35967 ft | 472 kts | 346° |
| 2026-05-07 15:26 | 44.22238 | 1.16957 | 35972 ft | 472 kts | 346° |
| 2026-05-07 15:27 | 44.28664 | 1.15272 | 35970 ft | 472 kts | 346° |
| 2026-05-07 15:27 | 44.35130 | 1.13574 | 35973 ft | 473 kts | 346° |
| 2026-05-07 15:28 | 44.41601 | 1.11870 | 35976 ft | 472 kts | 346° |
| 2026-05-07 15:28 | 44.48055 | 1.10167 | 35971 ft | 472 kts | 346° |
| 2026-05-07 15:29 | 44.54509 | 1.08460 | 35966 ft | 471 kts | 346° |
| 2026-05-07 15:29 | 44.60947 | 1.06753 | 35965 ft | 470 kts | 346° |
| 2026-05-07 15:30 | 44.67338 | 1.05055 | 35966 ft | 470 kts | 346° |
| 2026-05-07 15:30 | 44.73757 | 1.03346 | 35968 ft | 469 kts | 346° |
| 2026-05-07 15:31 | 44.79129 | 1.01912 | 35973 ft | 469 kts | 346° |
| 2026-05-07 15:31 | 44.85535 | 1.00199 | 35967 ft | 468 kts | 346° |
| 2026-05-07 15:32 | 44.91896 | 0.98494 | 35972 ft | 468 kts | 346° |
| 2026-05-07 15:32 | 44.98305 | 0.96772 | 35967 ft | 468 kts | 346° |
| 2026-05-07 15:33 | 45.04705 | 0.95049 | 35972 ft | 468 kts | 346° |
| 2026-05-07 15:33 | 45.11110 | 0.93321 | 35967 ft | 469 kts | 346° |
| 2026-05-07 15:34 | 45.17477 | 0.91598 | 35963 ft | 469 kts | 346° |
| 2026-05-07 15:34 | 45.23891 | 0.89860 | 35975 ft | 469 kts | 346° |
| 2026-05-07 15:35 | 45.30300 | 0.88118 | 35969 ft | 469 kts | 346° |
| 2026-05-07 15:35 | 45.36720 | 0.86370 | 35962 ft | 469 kts | 346° |
| 2026-05-07 15:36 | 45.43147 | 0.84616 | 35982 ft | 469 kts | 346° |
| 2026-05-07 15:36 | 45.49567 | 0.82860 | 35958 ft | 469 kts | 346° |
| 2026-05-07 15:37 | 45.55934 | 0.81114 | 35984 ft | 468 kts | 345° |
| 2026-05-07 15:37 | 45.62336 | 0.79354 | 35983 ft | 468 kts | 345° |
| 2026-05-07 15:38 | 45.68738 | 0.77590 | 35972 ft | 468 kts | 345° |
| 2026-05-07 15:38 | 45.75145 | 0.75821 | 35969 ft | 468 kts | 345° |
| 2026-05-07 15:39 | 45.81502 | 0.74061 | 35980 ft | 468 kts | 345° |
| 2026-05-07 15:39 | 45.87894 | 0.72288 | 35972 ft | 467 kts | 345° |
| 2026-05-07 15:40 | 45.94283 | 0.70512 | 35970 ft | 467 kts | 345° |
| 2026-05-07 15:40 | 46.00663 | 0.68733 | 35985 ft | 467 kts | 345° |
| 2026-05-07 15:41 | 46.07054 | 0.66947 | 35968 ft | 467 kts | 345° |
| 2026-05-07 15:41 | 46.13393 | 0.65172 | 35976 ft | 467 kts | 345° |
| 2026-05-07 15:42 | 46.19770 | 0.63382 | 35980 ft | 466 kts | 345° |
| 2026-05-07 15:42 | 46.26141 | 0.61589 | 35974 ft | 466 kts | 345° |
| 2026-05-07 15:43 | 46.32507 | 0.59793 | 35972 ft | 465 kts | 345° |
| 2026-05-07 15:43 | 46.38865 | 0.57996 | 35982 ft | 465 kts | 345° |
| 2026-05-07 15:44 | 46.45218 | 0.56195 | 35990 ft | 465 kts | 345° |
| 2026-05-07 15:44 | 46.51574 | 0.54389 | 35990 ft | 465 kts | 345° |
| 2026-05-07 15:45 | 46.58011 | 0.53778 | 36007 ft | 472 kts | 2° |
| 2026-05-07 15:45 | 46.64484 | 0.55643 | 35996 ft | 475 kts | 11° |
| 2026-05-07 15:46 | 46.74135 | 0.59019 | 35987 ft | 475 kts | 10° |
| 2026-05-07 15:47 | 46.80576 | 0.61178 | 35986 ft | 475 kts | 10° |
| 2026-05-07 15:47 | 46.87035 | 0.63315 | 35989 ft | 475 kts | 10° |
| 2026-05-07 15:48 | 46.93454 | 0.65446 | 35989 ft | 476 kts | 10° |
| 2026-05-07 15:48 | 46.99916 | 0.67600 | 36000 ft | 476 kts | 10° |
| 2026-05-07 15:49 | 47.06405 | 0.69554 | 35983 ft | 474 kts | 3° |
| 2026-05-07 15:49 | 47.12962 | 0.70249 | 35988 ft | 472 kts | 0° |
| 2026-05-07 15:50 | 47.19516 | 0.70783 | 36006 ft | 472 kts | 0° |
| 2026-05-07 15:50 | 47.26092 | 0.71419 | 35988 ft | 474 kts | 1° |
| 2026-05-07 15:51 | 47.32657 | 0.72110 | 35989 ft | 472 kts | 1° |
| 2026-05-07 15:51 | 47.39203 | 0.72804 | 36010 ft | 471 kts | 1° |
| 2026-05-07 15:52 | 47.45701 | 0.73489 | 35989 ft | 470 kts | 1° |
| 2026-05-07 15:52 | 47.52169 | 0.74943 | 35984 ft | 473 kts | 15° |
| 2026-05-07 15:53 | 47.58406 | 0.78070 | 35994 ft | 473 kts | 17° |
| 2026-05-07 15:53 | 47.64626 | 0.81254 | 35998 ft | 472 kts | 17° |
| 2026-05-07 15:54 | 47.70844 | 0.84346 | 35993 ft | 471 kts | 16° |
| 2026-05-07 15:54 | 47.77053 | 0.87407 | 36003 ft | 470 kts | 16° |
| 2026-05-07 15:55 | 47.83254 | 0.90476 | 36018 ft | 470 kts | 16° |
| 2026-05-07 15:55 | 47.89412 | 0.93566 | 36005 ft | 470 kts | 17° |
| 2026-05-07 15:56 | 47.95603 | 0.96706 | 36006 ft | 470 kts | 17° |
| 2026-05-07 15:56 | 48.01804 | 0.99855 | 36018 ft | 470 kts | 17° |
| 2026-05-07 15:57 | 48.08016 | 1.03014 | 36017 ft | 471 kts | 17° |
| 2026-05-07 15:57 | 48.14242 | 1.06188 | 36002 ft | 472 kts | 17° |
| 2026-05-07 15:58 | 48.20461 | 1.09366 | 36003 ft | 473 kts | 17° |
| 2026-05-07 15:58 | 48.26648 | 1.12523 | 36013 ft | 473 kts | 17° |
| 2026-05-07 15:59 | 48.32878 | 1.15697 | 36015 ft | 471 kts | 17° |
| 2026-05-07 15:59 | 48.39091 | 1.18872 | 36015 ft | 470 kts | 17° |
| 2026-05-07 16:00 | 48.45282 | 1.22047 | 36022 ft | 469 kts | 17° |
| 2026-05-07 16:00 | 48.51449 | 1.25217 | 36026 ft | 468 kts | 17° |
| 2026-05-07 16:01 | 48.57567 | 1.28358 | 36021 ft | 467 kts | 17° |
| 2026-05-07 16:01 | 48.63724 | 1.31456 | 36024 ft | 466 kts | 16° |
| 2026-05-07 16:02 | 48.69877 | 1.34549 | 36027 ft | 466 kts | 17° |
| 2026-05-07 16:02 | 48.76033 | 1.37663 | 36029 ft | 466 kts | 17° |
| 2026-05-07 16:03 | 48.82188 | 1.40788 | 36041 ft | 466 kts | 17° |
| 2026-05-07 16:03 | 48.88335 | 1.43918 | 36043 ft | 466 kts | 17° |
| 2026-05-07 16:04 | 48.94458 | 1.47183 | 36036 ft | 468 kts | 23° |
| 2026-05-07 16:04 | 48.99906 | 1.52629 | 36043 ft | 471 kts | 42° |
| 2026-05-07 16:05 | 49.04312 | 1.59934 | 36043 ft | 472 kts | 49° |
| 2026-05-07 16:05 | 49.08622 | 1.67516 | 36049 ft | 473 kts | 48° |
| 2026-05-07 16:06 | 49.12967 | 1.75066 | 36036 ft | 474 kts | 48° |
| 2026-05-07 16:06 | 49.17342 | 1.82605 | 36034 ft | 474 kts | 47° |
| 2026-05-07 16:07 | 49.21719 | 1.90154 | 36047 ft | 474 kts | 47° |
| 2026-05-07 16:07 | 49.26094 | 1.97728 | 36042 ft | 475 kts | 48° |
| 2026-05-07 16:08 | 49.30459 | 2.05310 | 36052 ft | 474 kts | 48° |
| 2026-05-07 16:08 | 49.34800 | 2.12870 | 36044 ft | 474 kts | 48° |
| 2026-05-07 16:09 | 49.39154 | 2.20479 | 36051 ft | 474 kts | 48° |
| 2026-05-07 16:09 | 49.43496 | 2.28091 | 36044 ft | 473 kts | 48° |
| 2026-05-07 16:10 | 49.47829 | 2.35710 | 36047 ft | 473 kts | 48° |
| 2026-05-07 16:10 | 49.52153 | 2.43331 | 36051 ft | 472 kts | 48° |
| 2026-05-07 16:11 | 49.56786 | 2.50471 | 36037 ft | 470 kts | 34° |
| 2026-05-07 16:11 | 49.62249 | 2.55833 | 36036 ft | 468 kts | 30° |
| 2026-05-07 16:12 | 49.67808 | 2.61080 | 36037 ft | 468 kts | 30° |
| 2026-05-07 16:12 | 49.73339 | 2.66396 | 36045 ft | 468 kts | 30° |
| 2026-05-07 16:13 | 49.78860 | 2.71776 | 36031 ft | 468 kts | 31° |
| 2026-05-07 16:13 | 49.84370 | 2.77174 | 36036 ft | 468 kts | 31° |
| 2026-05-07 16:14 | 49.89880 | 2.82583 | 36035 ft | 468 kts | 31° |
| 2026-05-07 16:14 | 49.95390 | 2.88005 | 36044 ft | 469 kts | 31° |
| 2026-05-07 16:15 | 50.00897 | 2.93438 | 36039 ft | 469 kts | 31° |
| 2026-05-07 16:15 | 50.06372 | 2.98855 | 36046 ft | 469 kts | 31° |
| 2026-05-07 16:16 | 50.11876 | 3.04315 | 36050 ft | 469 kts | 31° |
| 2026-05-07 16:16 | 50.17378 | 3.09788 | 36037 ft | 470 kts | 31° |
| 2026-05-07 16:16 | 50.20140 | 3.12540 | 35773 ft | 473 kts | 31° |
| 2026-05-07 16:17 | 50.22922 | 3.15273 | 35534 ft | 470 kts | 28° |
| 2026-05-07 16:17 | 50.25814 | 3.17566 | 35287 ft | 464 kts | 21° |
| 2026-05-07 16:17 | 50.27764 | 3.18905 | 34960 ft | 462 kts | 20° |
| 2026-05-07 16:17 | 50.30729 | 3.20863 | 34356 ft | 463 kts | 20° |
| 2026-05-07 16:18 | 50.33698 | 3.22833 | 33703 ft | 463 kts | 20° |
| 2026-05-07 16:18 | 50.36653 | 3.24856 | 33003 ft | 464 kts | 21° |
| 2026-05-07 16:18 | 50.39588 | 3.26911 | 32569 ft | 458 kts | 21° |
| 2026-05-07 16:18 | 50.42468 | 3.29019 | 32076 ft | 456 kts | 24° |
| 2026-05-07 16:19 | 50.45286 | 3.31250 | 31624 ft | 452 kts | 25° |
| 2026-05-07 16:19 | 50.48071 | 3.33485 | 31176 ft | 448 kts | 25° |
| 2026-05-07 16:19 | 50.50839 | 3.35683 | 30733 ft | 444 kts | 24° |
| 2026-05-07 16:19 | 50.53614 | 3.37767 | 30299 ft | 440 kts | 22° |
| 2026-05-07 16:20 | 50.56397 | 3.39698 | 29819 ft | 436 kts | 21° |
| 2026-05-07 16:20 | 50.59174 | 3.41565 | 29349 ft | 431 kts | 21° |
| 2026-05-07 16:20 | 50.61926 | 3.43411 | 28899 ft | 427 kts | 21° |
| 2026-05-07 16:20 | 50.64612 | 3.45226 | 28453 ft | 422 kts | 21° |
| 2026-05-07 16:21 | 50.67330 | 3.47081 | 27996 ft | 419 kts | 21° |
| 2026-05-07 16:21 | 50.69954 | 3.48884 | 27584 ft | 415 kts | 21° |
| 2026-05-07 16:21 | 50.72593 | 3.50705 | 27136 ft | 412 kts | 22° |
| 2026-05-07 16:21 | 50.75208 | 3.52516 | 26703 ft | 408 kts | 22° |
| 2026-05-07 16:22 | 50.77804 | 3.54314 | 26276 ft | 405 kts | 22° |
| 2026-05-07 16:22 | 50.80376 | 3.56099 | 25852 ft | 403 kts | 22° |
| 2026-05-07 16:22 | 50.82935 | 3.57876 | 25441 ft | 400 kts | 22° |
| 2026-05-07 16:22 | 50.85477 | 3.59642 | 25024 ft | 398 kts | 22° |
| 2026-05-07 16:23 | 50.88000 | 3.61398 | 24614 ft | 395 kts | 22° |
| 2026-05-07 16:23 | 50.90549 | 3.62996 | 24192 ft | 392 kts | 14° |
| 2026-05-07 16:23 | 50.93194 | 3.63895 | 23845 ft | 386 kts | 4° |
| 2026-05-07 16:23 | 50.95864 | 3.64145 | 23525 ft | 385 kts | 0° |
| 2026-05-07 16:24 | 50.98530 | 3.64280 | 23165 ft | 390 kts | 360° |
| 2026-05-07 16:24 | 51.01259 | 3.64408 | 22812 ft | 394 kts | 360° |
| 2026-05-07 16:24 | 51.04006 | 3.64550 | 22464 ft | 394 kts | 0° |
| 2026-05-07 16:24 | 51.06729 | 3.64708 | 22128 ft | 390 kts | 0° |
| 2026-05-07 16:25 | 51.09431 | 3.64876 | 21814 ft | 386 kts | 0° |
| 2026-05-07 16:25 | 51.12111 | 3.65049 | 21487 ft | 384 kts | 0° |
| 2026-05-07 16:25 | 51.14772 | 3.65223 | 21172 ft | 381 kts | 0° |
| 2026-05-07 16:25 | 51.17415 | 3.65396 | 20859 ft | 379 kts | 0° |
| 2026-05-07 16:26 | 51.20049 | 3.65568 | 20548 ft | 378 kts | 0° |
| 2026-05-07 16:26 | 51.22671 | 3.65739 | 20241 ft | 376 kts | 0° |
| 2026-05-07 16:26 | 51.25284 | 3.65844 | 19929 ft | 375 kts | 358° |
| 2026-05-07 16:26 | 51.27889 | 3.65791 | 19629 ft | 374 kts | 357° |
| 2026-05-07 16:27 | 51.30488 | 3.65682 | 19316 ft | 373 kts | 356° |
| 2026-05-07 16:27 | 51.33079 | 3.65565 | 19012 ft | 372 kts | 357° |
| 2026-05-07 16:27 | 51.35660 | 3.65456 | 18703 ft | 371 kts | 357° |
| 2026-05-07 16:27 | 51.38204 | 3.65359 | 18405 ft | 370 kts | 357° |
| 2026-05-07 16:28 | 51.40772 | 3.65270 | 18056 ft | 368 kts | 357° |
| 2026-05-07 16:28 | 51.43326 | 3.65186 | 17725 ft | 366 kts | 357° |
| 2026-05-07 16:28 | 51.45869 | 3.65104 | 17410 ft | 364 kts | 358° |
| 2026-05-07 16:28 | 51.48392 | 3.65025 | 17106 ft | 361 kts | 358° |
| 2026-05-07 16:29 | 51.50895 | 3.64946 | 16811 ft | 359 kts | 358° |
| 2026-05-07 16:29 | 51.53386 | 3.64869 | 16519 ft | 357 kts | 357° |
| 2026-05-07 16:29 | 51.55868 | 3.64790 | 16228 ft | 355 kts | 357° |
| 2026-05-07 16:29 | 51.58333 | 3.64713 | 15938 ft | 354 kts | 357° |
| 2026-05-07 16:30 | 51.60793 | 3.64635 | 15645 ft | 352 kts | 357° |
| 2026-05-07 16:30 | 51.63212 | 3.64558 | 15361 ft | 351 kts | 357° |
| 2026-05-07 16:30 | 51.65659 | 3.64481 | 15071 ft | 351 kts | 357° |
| 2026-05-07 16:30 | 51.68093 | 3.64403 | 14791 ft | 350 kts | 357° |
| 2026-05-07 16:31 | 51.70510 | 3.64782 | 14470 ft | 351 kts | 17° |
| 2026-05-07 16:31 | 51.72650 | 3.66647 | 14208 ft | 352 kts | 39° |
| 2026-05-07 16:31 | 51.74268 | 3.69588 | 13929 ft | 351 kts | 56° |
| 2026-05-07 16:31 | 51.75589 | 3.72887 | 13624 ft | 350 kts | 58° |
| 2026-05-07 16:32 | 51.76874 | 3.76225 | 13310 ft | 350 kts | 58° |
| 2026-05-07 16:32 | 51.78152 | 3.79562 | 12996 ft | 348 kts | 58° |
| 2026-05-07 16:32 | 51.79433 | 3.82887 | 12698 ft | 347 kts | 58° |
| 2026-05-07 16:32 | 51.80711 | 3.86179 | 12417 ft | 345 kts | 58° |
| 2026-05-07 16:33 | 51.81988 | 3.89453 | 12130 ft | 343 kts | 58° |
| 2026-05-07 16:33 | 51.83243 | 3.92664 | 11851 ft | 342 kts | 58° |
| 2026-05-07 16:33 | 51.84511 | 3.95906 | 11574 ft | 340 kts | 58° |
| 2026-05-07 16:33 | 51.85773 | 3.99133 | 11290 ft | 339 kts | 58° |
| 2026-05-07 16:34 | 51.87026 | 4.02341 | 11012 ft | 335 kts | 58° |
| 2026-05-07 16:34 | 51.88261 | 4.05505 | 10732 ft | 330 kts | 58° |
| 2026-05-07 16:34 | 51.89475 | 4.08622 | 10465 ft | 325 kts | 58° |
| 2026-05-07 16:34 | 51.90675 | 4.11705 | 10200 ft | 320 kts | 58° |
| 2026-05-07 16:35 | 51.91992 | 4.14534 | 10087 ft | 310 kts | 45° |
| 2026-05-07 16:35 | 51.93548 | 4.16848 | 10072 ft | 297 kts | 41° |
| 2026-05-07 16:35 | 51.95104 | 4.19048 | 9809 ft | 297 kts | 41° |
| 2026-05-07 16:35 | 51.96651 | 4.21230 | 9688 ft | 292 kts | 41° |
| 2026-05-07 16:36 | 51.98174 | 4.23397 | 9557 ft | 290 kts | 41° |
| 2026-05-07 16:36 | 51.99682 | 4.25560 | 9431 ft | 288 kts | 41° |
| 2026-05-07 16:36 | 52.01179 | 4.27722 | 9313 ft | 286 kts | 42° |
| 2026-05-07 16:36 | 52.02655 | 4.29865 | 9205 ft | 284 kts | 42° |
| 2026-05-07 16:37 | 52.04135 | 4.32021 | 9095 ft | 288 kts | 42° |
| 2026-05-07 16:37 | 52.05629 | 4.34204 | 8992 ft | 291 kts | 42° |
| 2026-05-07 16:37 | 52.07124 | 4.36393 | 8868 ft | 289 kts | 42° |
| 2026-05-07 16:37 | 52.08615 | 4.38580 | 8754 ft | 288 kts | 42° |
| 2026-05-07 16:38 | 52.10104 | 4.40765 | 8646 ft | 288 kts | 42° |
| 2026-05-07 16:38 | 52.11586 | 4.42944 | 8530 ft | 287 kts | 43° |
| 2026-05-07 16:38 | 52.13063 | 4.45117 | 8415 ft | 286 kts | 43° |
| 2026-05-07 16:38 | 52.14534 | 4.47285 | 8317 ft | 285 kts | 43° |
| 2026-05-07 16:39 | 52.16003 | 4.49451 | 8207 ft | 285 kts | 43° |
| 2026-05-07 16:39 | 52.17472 | 4.51620 | 8092 ft | 285 kts | 43° |
| 2026-05-07 16:39 | 52.18939 | 4.53788 | 7978 ft | 285 kts | 43° |
| 2026-05-07 16:39 | 52.20405 | 4.55956 | 7864 ft | 285 kts | 43° |
| 2026-05-07 16:40 | 52.21874 | 4.58132 | 7756 ft | 284 kts | 43° |
| 2026-05-07 16:40 | 52.23319 | 4.60271 | 7649 ft | 284 kts | 43° |
| 2026-05-07 16:40 | 52.24782 | 4.62441 | 7538 ft | 284 kts | 43° |
| 2026-05-07 16:40 | 52.26243 | 4.64609 | 7435 ft | 284 kts | 43° |
| 2026-05-07 16:41 | 52.27702 | 4.66775 | 7313 ft | 284 kts | 43° |
| 2026-05-07 16:41 | 52.29327 | 4.68521 | 7161 ft | 282 kts | 18° |
| 2026-05-07 16:41 | 52.31227 | 4.68808 | 7096 ft | 270 kts | 349° |
| 2026-05-07 16:41 | 52.32936 | 4.67733 | 6917 ft | 263 kts | 324° |
| 2026-05-07 16:42 | 52.34216 | 4.65648 | 6617 ft | 260 kts | 301° |
| 2026-05-07 16:42 | 52.34889 | 4.62952 | 6216 ft | 258 kts | 272° |
| 2026-05-07 16:42 | 52.34482 | 4.60204 | 5900 ft | 247 kts | 233° |
| 2026-05-07 16:42 | 52.33328 | 4.58229 | 5653 ft | 236 kts | 223° |
| 2026-05-07 16:43 | 52.32236 | 4.56283 | 5455 ft | 229 kts | 229° |
| 2026-05-07 16:43 | 52.31262 | 4.54229 | 5231 ft | 229 kts | 233° |
| 2026-05-07 16:43 | 52.30350 | 4.52095 | 5005 ft | 230 kts | 234° |
| 2026-05-07 16:43 | 52.29459 | 4.49895 | 4778 ft | 234 kts | 236° |
| 2026-05-07 16:44 | 52.28572 | 4.47650 | 4536 ft | 236 kts | 237° |
| 2026-05-07 16:44 | 52.27675 | 4.45412 | 4283 ft | 235 kts | 231° |
| 2026-05-07 16:44 | 52.26388 | 4.43840 | 4033 ft | 232 kts | 197° |
| 2026-05-07 16:44 | 52.24811 | 4.43696 | 3826 ft | 228 kts | 166° |
| 2026-05-07 16:45 | 52.23362 | 4.44690 | 3607 ft | 227 kts | 149° |
| 2026-05-07 16:45 | 52.22064 | 4.46168 | 3299 ft | 228 kts | 131° |
| 2026-05-07 16:45 | 52.21345 | 4.48358 | 3098 ft | 213 kts | 108° |
| 2026-05-07 16:45 | 52.20911 | 4.50590 | 2851 ft | 202 kts | 103° |
| 2026-05-07 16:46 | 52.20949 | 4.52729 | 2650 ft | 187 kts | 66° |
| 2026-05-07 16:46 | 52.21620 | 4.54490 | 2491 ft | 179 kts | 60° |
| 2026-05-07 16:46 | 52.22234 | 4.56239 | 2320 ft | 181 kts | 60° |
| 2026-05-07 16:46 | 52.22877 | 4.57999 | 2122 ft | 174 kts | 58° |
| 2026-05-07 16:47 | 52.23536 | 4.59688 | 2010 ft | 181 kts | 58° |
| 2026-05-07 16:47 | 52.24201 | 4.61411 | 1764 ft | 175 kts | 58° |
| 2026-05-07 16:47 | 52.24826 | 4.63045 | 1526 ft | 165 kts | 57° |
| 2026-05-07 16:47 | 52.25408 | 4.64571 | 1324 ft | 153 kts | 57° |
| 2026-05-07 16:48 | 52.25964 | 4.66023 | 1120 ft | 148 kts | 56° |
| 2026-05-07 16:48 | 52.26503 | 4.67431 | 912 ft | 144 kts | 56° |
| 2026-05-07 16:48 | 52.27042 | 4.68833 | 755 ft | 148 kts | 56° |
| 2026-05-07 16:48 | 52.27582 | 4.70254 | 540 ft | 146 kts | 58° |
| 2026-05-07 16:49 | 52.28111 | 4.71647 | 338 ft | 142 kts | 56° |
| 2026-05-07 16:49 | 52.28635 | 4.73006 | 138 ft | 141 kts | 57° |
| 2026-05-07 16:49 | 52.29146 | 4.74337 | 1 ft | 133 kts | 58° |
| 2026-05-07 16:49 | 52.29575 | 4.75453 | -3 ft | 95 kts | 58° |
| 2026-05-07 16:50 | 52.29867 | 4.76214 | -4 ft | 64 kts | 57° |
| 2026-05-07 16:50 | 52.30016 | 4.76524 | -3 ft | 28 kts | 34° |
| 2026-05-07 16:50 | 52.30144 | 4.76639 | -2 ft | 0 kts | 27° |
| 2026-05-07 16:51 | 52.30147 | 4.76641 | -2 ft | 1 kts | 27° |
| 2026-05-07 16:51 | 52.30163 | 4.76656 | -2 ft | 4 kts | 28° |
| 2026-05-07 16:52 | 52.30197 | 4.76685 | -2 ft | 7 kts | 27° |
| 2026-05-07 16:52 | 52.30237 | 4.76718 | -2 ft | 7 kts | 26° |
| 2026-05-07 16:52 | 52.30280 | 4.76746 | -2 ft | 6 kts | 14° |
| 2026-05-07 16:52 | 52.30322 | 4.76729 | -2 ft | 6 kts | 327° |
| 2026-05-07 16:53 | 52.30345 | 4.76671 | -2 ft | 6 kts | 285° |
| 2026-05-07 16:53 | 52.30357 | 4.76603 | -2 ft | 6 kts | 297° |
| 2026-05-07 16:53 | 52.30392 | 4.76555 | -2 ft | 7 kts | 327° |
| 2026-05-07 16:53 | 52.30435 | 4.76517 | -2 ft | 7 kts | 352° |
| 2026-05-07 16:54 | 52.30456 | 4.76542 | -2 ft | 1 kts | 54° |
| 2026-05-07 16:54 | 52.30461 | 4.76552 | -2 ft | 1 kts | 54° |
| 2026-05-07 16:54 | 52.30466 | 4.76566 | -2 ft | 0 kts | 57° |